createdAt,value
2023-03-07T00:01:36.039Z,6.29
2023-03-07T00:04:07.792Z,6.33
2023-03-07T00:06:37.147Z,6.44
2023-03-07T00:09:07.130Z,5.97
2023-03-07T00:11:37.047Z,6.16
2023-03-07T00:14:09.345Z,6.18
2023-03-07T00:16:39.955Z,6.23
2023-03-07T00:19:10.207Z,6.40
2023-03-07T00:21:40.037Z,6.40
2023-03-07T00:24:11.987Z,6.27
2023-03-07T00:26:42.025Z,6.35
2023-03-07T00:29:12.701Z,6.74
2023-03-07T00:31:42.323Z,6.75
2023-03-07T00:34:12.307Z,6.84
2023-03-07T00:36:43.236Z,6.79
2023-03-07T00:39:13.735Z,7.11
2023-03-07T00:41:46.648Z,7.21
2023-03-07T00:44:17.334Z,7.57
2023-03-07T00:46:47.284Z,7.59
2023-03-07T00:49:17.654Z,7.02
2023-03-07T00:51:48.546Z,7.28
2023-03-07T00:54:20.320Z,7.35
2023-03-07T00:56:50.746Z,7.39
2023-03-07T00:59:21.981Z,7.26
2023-03-07T01:01:52.829Z,7.69
2023-03-07T01:04:22.447Z,7.08
2023-03-07T01:06:54.164Z,7.24
2023-03-07T01:09:25.064Z,6.96
2023-03-07T01:11:59.578Z,6.80
2023-03-07T01:14:32.675Z,6.92
2023-03-07T01:17:02.239Z,6.62
2023-03-07T01:19:33.645Z,6.72
2023-03-07T01:22:03.991Z,6.53
2023-03-07T01:24:34.366Z,7.20
2023-03-07T01:27:05.339Z,6.78
2023-03-07T01:29:37.063Z,6.80
2023-03-07T01:32:08.768Z,6.88
2023-03-07T01:34:38.413Z,7.19
2023-03-07T01:37:08.714Z,6.85
2023-03-07T01:39:37.586Z,7.17
2023-03-07T01:42:10.916Z,6.88
2023-03-07T01:45:38.025Z,6.86
2023-03-07T01:48:09.082Z,6.85
2023-03-07T01:50:39.949Z,6.87
2023-03-07T01:53:11.706Z,6.91
2023-03-07T01:55:41.656Z,6.74
2023-03-07T01:58:19.652Z,7.27
2023-03-07T02:00:49.668Z,7.02
2023-03-07T02:03:23.810Z,6.77
2023-03-07T02:06:03.738Z,7.03
2023-03-07T02:08:41.615Z,7.03
2023-03-07T02:11:14.908Z,7.33
2023-03-07T02:13:44.907Z,7.49
2023-03-07T02:16:15.475Z,7.24
2023-03-07T02:18:48.660Z,7.08
2023-03-07T02:21:45.647Z,7.46
2023-03-07T02:24:36.383Z,7.56
2023-03-07T02:27:07.653Z,7.44
2023-03-07T02:29:38.442Z,7.60
2023-03-07T02:32:09.806Z,7.37
2023-03-07T02:34:40.183Z,7.47
2023-03-07T02:37:24.957Z,7.45
2023-03-07T02:40:00.922Z,7.20
2023-03-07T02:42:34.681Z,6.82
2023-03-07T02:45:15.798Z,6.70
2023-03-07T02:47:48.491Z,7.04
2023-03-07T02:50:20.945Z,7.42
2023-03-07T02:52:53.665Z,7.14
2023-03-07T02:55:25.582Z,7.10
2023-03-07T02:58:01.333Z,7.10
2023-03-07T03:00:32.107Z,7.57
2023-03-07T03:03:01.780Z,7.51
2023-03-07T03:05:33.349Z,7.45
2023-03-07T03:08:03.515Z,7.36
2023-03-07T03:10:32.900Z,7.43
2023-03-07T03:13:04.097Z,7.66
2023-03-07T03:15:33.681Z,7.61
2023-03-07T03:18:08.582Z,7.83
2023-03-07T03:20:40.870Z,7.72
2023-03-07T03:23:10.945Z,7.71
2023-03-07T03:25:45.192Z,7.62
2023-03-07T03:28:16.181Z,7.88
2023-03-07T03:30:45.536Z,7.78
2023-03-07T03:33:15.835Z,7.73
2023-03-07T03:35:45.972Z,7.71
2023-03-07T03:38:18.159Z,7.89
2023-03-07T03:40:48.372Z,7.87
2023-03-07T03:43:20.775Z,8.15
2023-03-07T03:46:00.764Z,7.52
2023-03-07T03:48:33.106Z,7.97
2023-03-07T03:51:10.024Z,8.14
2023-03-07T03:53:41.658Z,7.91
2023-03-07T03:56:17.845Z,8.25
2023-03-07T03:58:56.788Z,8.16
2023-03-07T04:01:31.928Z,7.94
2023-03-07T04:04:03.554Z,7.91
2023-03-07T04:06:36.084Z,8.17
2023-03-07T04:09:07.093Z,8.03
2023-03-07T04:11:37.690Z,7.93
2023-03-07T04:14:09.373Z,8.03
2023-03-07T04:16:39.440Z,7.95
2023-03-07T04:19:13.706Z,8.34
2023-03-07T04:21:45.392Z,7.61
2023-03-07T04:24:17.719Z,7.59
2023-03-07T04:26:47.886Z,8.08
2023-03-07T04:29:18.170Z,8.09
2023-03-07T04:32:03.774Z,8.23
2023-03-07T04:34:33.008Z,8.17
2023-03-07T04:37:01.848Z,8.27
2023-03-07T04:39:31.440Z,8.25
2023-03-07T04:42:02.135Z,8.29
2023-03-07T04:44:36.946Z,8.17
2023-03-07T04:47:05.984Z,8.46
2023-03-07T04:49:40.016Z,8.37
2023-03-07T04:52:09.800Z,8.29
2023-03-07T04:54:41.314Z,8.44
2023-03-07T04:57:11.479Z,8.51
2023-03-07T04:59:41.064Z,8.20
2023-03-07T05:02:14.172Z,8.53
2023-03-07T05:04:45.134Z,8.13
2023-03-07T05:07:16.064Z,8.33
2023-03-07T05:09:45.511Z,7.90
2023-03-07T05:12:15.592Z,8.17
2023-03-07T05:14:44.928Z,8.15
2023-03-07T05:17:14.097Z,8.13
2023-03-07T05:19:45.139Z,8.21
2023-03-07T05:22:14.142Z,8.17
2023-03-07T05:24:45.425Z,8.14
2023-03-07T05:27:14.529Z,8.38
2023-03-07T05:29:47.533Z,8.02
2023-03-07T05:32:16.666Z,8.07
2023-03-07T05:34:48.502Z,8.15
2023-03-07T05:37:19.830Z,8.17
2023-03-07T05:39:49.598Z,8.07
2023-03-07T05:42:19.844Z,8.45
2023-03-07T05:44:49.613Z,8.94
2023-03-07T05:47:19.573Z,8.32
2023-03-07T05:49:49.360Z,8.24
2023-03-07T05:52:19.199Z,7.87
2023-03-07T05:54:51.312Z,7.96
2023-03-07T05:57:21.050Z,7.83
2023-03-07T05:59:49.876Z,8.32
2023-03-07T06:02:19.358Z,8.43
2023-03-07T06:04:48.569Z,8.30
2023-03-07T06:07:17.585Z,8.61
2023-03-07T06:09:47.686Z,8.54
2023-03-07T06:12:17.159Z,8.10
2023-03-07T06:14:45.947Z,8.51
2023-03-07T06:17:16.476Z,8.72
2023-03-07T06:19:46.065Z,8.60
2023-03-07T06:22:16.926Z,8.31
2023-03-07T06:24:45.806Z,8.41
2023-03-07T06:27:15.635Z,8.43
2023-03-07T06:29:44.885Z,8.45
2023-03-07T06:32:14.688Z,8.43
2023-03-07T06:34:45.417Z,8.47
2023-03-07T06:37:16.119Z,8.61
2023-03-07T06:39:46.310Z,8.49
2023-03-07T06:42:16.436Z,8.67
2023-03-07T06:44:45.818Z,8.97
2023-03-07T06:47:16.238Z,9.06
2023-03-07T06:49:46.050Z,9.21
2023-03-07T06:52:16.688Z,9.15
2023-03-07T06:54:46.211Z,8.81
2023-03-07T06:57:16.247Z,9.11
2023-03-07T06:59:47.843Z,9.26
2023-03-07T07:02:17.474Z,8.95
2023-03-07T07:04:45.881Z,8.91
2023-03-07T07:07:15.947Z,9.12
2023-03-07T07:09:45.655Z,9.36
2023-03-07T07:12:15.293Z,9.08
2023-03-07T07:14:43.939Z,8.87
2023-03-07T07:17:13.358Z,8.56
2023-03-07T07:19:42.122Z,8.65
2023-03-07T07:22:12.623Z,8.48
2023-03-07T07:24:41.964Z,8.94
2023-03-07T07:27:13.222Z,9.28
2023-03-07T07:29:45.070Z,9.68
2023-03-07T07:32:13.680Z,9.63
2023-03-07T07:34:43.944Z,9.65
2023-03-07T07:37:14.077Z,8.99
2023-03-07T07:39:45.385Z,8.77
2023-03-07T07:42:16.164Z,9.16
2023-03-07T07:45:01.400Z,8.45
2023-03-07T07:47:31.654Z,8.38
2023-03-07T07:50:01.353Z,8.92
2023-03-07T07:52:33.877Z,9.39
2023-03-07T07:55:03.804Z,9.31
2023-03-07T07:57:33.781Z,9.37
2023-03-07T08:00:07.070Z,8.95
2023-03-07T08:02:41.636Z,8.84
2023-03-07T08:05:11.848Z,8.59
2023-03-07T08:07:41.105Z,8.81
2023-03-07T08:10:14.075Z,8.91
2023-03-07T08:12:49.193Z,9.34
2023-03-07T08:15:21.155Z,9.71
2023-03-07T08:17:53.295Z,9.53
2023-03-07T08:20:25.120Z,9.69
2023-03-07T08:22:54.805Z,9.42
2023-03-07T08:25:28.843Z,8.99
2023-03-07T08:28:00.493Z,8.84
2023-03-07T08:30:33.457Z,8.89
2023-03-07T08:33:02.224Z,8.84
2023-03-07T08:35:34.486Z,8.62
2023-03-07T08:38:06.010Z,8.67
2023-03-07T08:40:37.104Z,8.66
2023-03-07T08:43:06.498Z,8.62
2023-03-07T08:45:37.737Z,8.60
2023-03-07T08:48:07.784Z,8.50
2023-03-07T08:50:38.129Z,8.55
2023-03-07T08:53:08.552Z,8.58
2023-03-07T08:55:39.743Z,8.55
2023-03-07T08:58:10.258Z,8.56
2023-03-07T09:00:41.124Z,8.59
2023-03-07T09:03:10.391Z,8.40
2023-03-07T09:05:40.927Z,8.42
2023-03-07T09:08:10.384Z,8.82
2023-03-07T09:10:41.337Z,8.40
2023-03-07T09:13:11.232Z,8.59
2023-03-07T09:15:40.991Z,8.71
2023-03-07T09:18:13.910Z,8.49
2023-03-07T09:20:44.768Z,8.48
2023-03-07T09:23:14.526Z,8.98
2023-03-07T09:25:45.541Z,9.09
2023-03-07T09:28:16.468Z,9.56
2023-03-07T09:30:46.012Z,9.46
2023-03-07T09:33:16.976Z,9.41
2023-03-07T09:35:46.209Z,9.75
2023-03-07T09:38:19.521Z,9.82
2023-03-07T09:40:49.737Z,9.47
2023-03-07T09:43:27.196Z,9.09
2023-03-07T09:46:42.751Z,8.54
2023-03-07T09:49:21.165Z,8.91
2023-03-07T09:51:53.321Z,8.31
2023-03-07T09:54:45.731Z,9.13
2023-03-07T09:57:36.506Z,9.22
2023-03-07T10:00:30.305Z,8.86
2023-03-07T10:03:32.202Z,9.99
2023-03-07T10:06:14.002Z,9.19
2023-03-07T10:08:45.931Z,9.22
2023-03-07T10:11:45.991Z,9.92
2023-03-07T10:14:16.141Z,9.31
2023-03-07T10:16:50.025Z,9.39
2023-03-07T10:19:45.703Z,9.93
2023-03-07T10:22:45.425Z,10.01
2023-03-07T10:25:29.256Z,10.01
2023-03-07T10:28:24.084Z,9.92
2023-03-07T10:30:59.771Z,9.64
2023-03-07T10:33:33.308Z,10.00
2023-03-07T10:36:09.768Z,10.63
2023-03-07T10:38:49.709Z,9.96
2023-03-07T10:41:22.633Z,10.05
2023-03-07T10:43:55.616Z,9.82
2023-03-07T10:46:33.917Z,10.03
2023-03-07T10:49:10.563Z,9.81
2023-03-07T10:52:05.478Z,10.31
2023-03-07T10:54:38.023Z,9.57
2023-03-07T10:57:17.947Z,9.94
2023-03-07T10:59:51.597Z,9.52
2023-03-07T11:02:45.490Z,10.26
2023-03-07T11:05:37.404Z,9.54
2023-03-07T11:08:35.900Z,10.23
2023-03-07T11:11:06.231Z,9.74
2023-03-07T11:13:36.887Z,9.79
2023-03-07T11:16:22.273Z,9.71
2023-03-07T11:18:51.784Z,9.91
2023-03-07T11:21:37.811Z,9.90
2023-03-07T11:24:32.237Z,10.02
2023-03-07T11:27:02.664Z,9.90
2023-03-07T11:29:37.673Z,10.16
2023-03-07T11:32:21.871Z,9.82
2023-03-07T11:35:07.479Z,9.80
2023-03-07T11:37:37.397Z,9.77
2023-03-07T11:40:10.972Z,9.97
2023-03-07T11:42:45.357Z,10.06
2023-03-07T11:45:36.133Z,9.44
2023-03-07T11:48:23.963Z,9.87
2023-03-07T11:51:00.521Z,9.37
2023-03-07T11:53:56.008Z,9.71
2023-03-07T11:56:36.187Z,10.35
2023-03-07T11:59:33.218Z,10.00
2023-03-07T12:02:08.033Z,9.83
2023-03-07T12:05:05.920Z,10.54
2023-03-07T12:08:06.095Z,10.30
2023-03-07T12:11:02.253Z,10.12
2023-03-07T12:13:55.909Z,9.85
2023-03-07T12:16:33.341Z,10.06
2023-03-07T12:19:33.877Z,9.68
2023-03-07T12:22:16.653Z,10.04
2023-03-07T12:25:05.183Z,10.37
2023-03-07T12:28:04.209Z,10.27
2023-03-07T12:30:41.222Z,9.39
2023-03-07T12:33:26.354Z,9.20
2023-03-07T12:36:09.530Z,10.06
2023-03-07T12:39:25.243Z,10.09
2023-03-07T12:42:05.265Z,10.12
2023-03-07T12:44:34.123Z,9.95
2023-03-07T12:47:25.167Z,10.32
2023-03-07T12:50:25.911Z,11.13
2023-03-07T12:53:30.738Z,10.46
2023-03-07T12:56:13.582Z,10.71
2023-03-07T12:59:01.659Z,10.19
2023-03-07T13:01:41.825Z,10.39
2023-03-07T13:04:22.609Z,10.20
2023-03-07T13:06:54.713Z,10.37
2023-03-07T13:09:34.258Z,10.55
2023-03-07T13:12:17.269Z,10.48
2023-03-07T13:14:52.014Z,10.69
2023-03-07T13:17:36.114Z,10.70
2023-03-07T13:20:25.496Z,10.33
2023-03-07T13:22:54.535Z,10.44
2023-03-07T13:25:26.624Z,10.56
2023-03-07T13:28:00.519Z,10.92
2023-03-07T13:30:32.262Z,10.84
2023-03-07T13:33:02.834Z,10.73
2023-03-07T13:36:00.273Z,10.82
2023-03-07T13:38:41.876Z,10.64
2023-03-07T13:41:35.646Z,10.63
2023-03-07T13:44:05.364Z,10.60
2023-03-07T13:46:43.977Z,10.62
2023-03-07T13:49:13.434Z,10.30
2023-03-07T13:52:18.621Z,10.66
2023-03-07T13:54:50.458Z,10.60
2023-03-07T13:57:22.466Z,9.75
2023-03-07T13:59:53.186Z,10.68
2023-03-07T14:02:25.137Z,10.80
2023-03-07T14:05:01.369Z,10.95
2023-03-07T14:07:37.934Z,10.74
2023-03-07T14:10:31.655Z,11.02
2023-03-07T14:13:32.324Z,10.42
2023-03-07T14:16:14.240Z,10.71
2023-03-07T14:18:49.880Z,10.55
2023-03-07T14:21:53.301Z,10.90
2023-03-07T14:24:44.087Z,10.61
2023-03-07T14:27:18.184Z,10.46
2023-03-07T14:29:58.326Z,10.22
2023-03-07T14:32:32.837Z,9.99
2023-03-07T14:35:01.859Z,9.02
2023-03-07T14:37:33.595Z,9.60
2023-03-07T14:40:21.175Z,9.46
2023-03-07T14:43:09.195Z,9.07
2023-03-07T14:46:07.818Z,10.02
2023-03-07T14:49:01.456Z,10.21
2023-03-07T14:51:31.764Z,10.18
2023-03-07T14:54:08.725Z,10.53
2023-03-07T14:56:39.379Z,10.08
2023-03-07T14:59:25.920Z,10.59
2023-03-07T15:02:00.388Z,10.40
2023-03-07T15:04:32.105Z,10.27
2023-03-07T15:07:05.375Z,10.43
2023-03-07T15:09:35.657Z,10.60
2023-03-07T15:12:11.995Z,10.61
2023-03-07T15:14:53.246Z,10.71
2023-03-07T15:17:31.629Z,10.31
2023-03-07T15:20:04.844Z,10.71
2023-03-07T15:22:40.414Z,10.24
2023-03-07T15:25:25.233Z,10.70
2023-03-07T15:28:05.579Z,10.30
2023-03-07T15:30:38.419Z,10.11
2023-03-07T15:33:17.237Z,10.00
2023-03-07T15:35:49.281Z,10.54
2023-03-07T15:38:24.389Z,10.40
2023-03-07T15:40:53.271Z,10.01
2023-03-07T15:43:27.803Z,9.28
2023-03-07T15:46:19.848Z,10.15
2023-03-07T15:48:54.721Z,9.95
2023-03-07T15:51:29.253Z,9.97
2023-03-07T15:54:05.669Z,9.99
2023-03-07T15:56:41.184Z,9.66
2023-03-07T15:59:22.705Z,9.29
2023-03-07T16:01:51.919Z,9.63
2023-03-07T16:04:37.823Z,9.31
2023-03-07T16:07:17.980Z,9.75
2023-03-07T16:09:47.897Z,9.15
2023-03-07T16:12:21.119Z,9.29
2023-03-07T16:14:53.915Z,9.18
2023-03-07T16:17:38.657Z,8.70
2023-03-07T16:20:16.813Z,8.58
2023-03-07T16:22:48.436Z,9.11
2023-03-07T16:25:18.494Z,8.79
2023-03-07T16:27:53.686Z,8.84
2023-03-07T16:30:30.879Z,8.33
2023-03-07T16:33:01.134Z,8.39
2023-03-07T16:35:32.104Z,8.46
2023-03-07T16:38:01.272Z,8.33
2023-03-07T16:40:33.625Z,7.87
2023-03-07T16:43:02.529Z,7.84
2023-03-07T16:45:33.746Z,7.97
2023-03-07T16:48:04.472Z,7.80
2023-03-07T16:50:34.163Z,7.59
2023-03-07T16:53:04.582Z,7.47
2023-03-07T16:55:35.367Z,7.55
2023-03-07T16:58:06.490Z,7.64
2023-03-07T17:00:35.989Z,7.61
2023-03-07T17:03:05.932Z,7.55
2023-03-07T17:05:35.657Z,7.33
2023-03-07T17:08:04.990Z,6.91
2023-03-07T17:10:43.636Z,7.04
2023-03-07T17:13:18.603Z,6.91
2023-03-07T17:15:50.147Z,7.18
2023-03-07T17:18:23.176Z,7.25
2023-03-07T17:20:53.874Z,7.09
2023-03-07T17:23:22.949Z,6.92
2023-03-07T17:25:52.858Z,7.20
2023-03-07T17:28:22.251Z,6.83
2023-03-07T17:30:50.529Z,7.16
2023-03-07T17:33:21.076Z,7.27
2023-03-07T17:35:49.982Z,7.39
2023-03-07T17:38:21.563Z,7.25
2023-03-07T17:40:56.185Z,7.11
2023-03-07T17:43:25.908Z,7.12
2023-03-07T17:45:58.349Z,7.29
2023-03-07T17:48:30.501Z,7.46
2023-03-07T17:51:01.523Z,7.27
2023-03-07T17:53:32.018Z,7.11
2023-03-07T17:56:10.552Z,6.80
2023-03-07T17:58:40.889Z,6.98
2023-03-07T18:01:14.213Z,6.96
2023-03-07T18:03:45.361Z,6.91
2023-03-07T18:06:15.208Z,6.58
2023-03-07T18:08:44.163Z,6.59
2023-03-07T18:11:14.242Z,6.47
2023-03-07T18:13:44.006Z,6.42
2023-03-07T18:16:14.095Z,6.26
2023-03-07T18:18:58.118Z,6.55
2023-03-07T18:21:30.208Z,6.24
2023-03-07T18:24:01.250Z,6.47
2023-03-07T18:26:31.665Z,6.64
2023-03-07T18:29:01.675Z,6.52
2023-03-07T18:31:32.412Z,6.50
2023-03-07T18:34:03.823Z,6.27
2023-03-07T18:36:33.543Z,6.56
2023-03-07T18:39:02.002Z,6.46
2023-03-07T18:41:31.965Z,6.63
2023-03-07T18:44:01.494Z,6.32
2023-03-07T18:46:33.405Z,6.20
2023-03-07T18:49:04.177Z,6.25
2023-03-07T18:51:34.229Z,6.25
2023-03-07T18:54:05.035Z,5.97
2023-03-07T18:56:34.676Z,6.24
2023-03-07T18:59:04.922Z,6.32
2023-03-07T19:01:36.649Z,5.92
2023-03-07T19:04:06.649Z,5.79
2023-03-07T19:06:40.820Z,5.67
2023-03-07T19:09:19.794Z,5.58
2023-03-07T19:11:49.294Z,6.30
2023-03-07T19:14:18.324Z,6.24
2023-03-07T19:16:47.852Z,5.90
2023-03-07T19:19:17.472Z,5.88
2023-03-07T19:21:46.081Z,5.99
2023-03-07T19:24:15.953Z,5.69
2023-03-07T19:26:45.254Z,5.85
2023-03-07T19:29:15.661Z,5.55
2023-03-07T19:31:44.978Z,5.27
2023-03-07T19:34:14.016Z,5.83
2023-03-07T19:36:43.859Z,5.56
2023-03-07T19:39:20.817Z,5.99
2023-03-07T19:41:49.650Z,6.09
2023-03-07T19:44:18.325Z,5.79
2023-03-07T19:46:47.805Z,5.63
2023-03-07T19:49:18.507Z,5.65
2023-03-07T19:51:48.167Z,5.68
2023-03-07T19:54:17.565Z,5.86
2023-03-07T19:56:46.231Z,5.45
2023-03-07T19:59:15.886Z,5.52
2023-03-07T20:01:45.161Z,5.95
2023-03-07T20:04:17.359Z,5.68
2023-03-07T20:06:45.939Z,5.67
2023-03-07T20:09:15.940Z,5.65
2023-03-07T20:11:45.229Z,5.84
2023-03-07T20:14:14.608Z,5.77
2023-03-07T20:16:44.818Z,5.43
2023-03-07T20:19:14.656Z,5.21
2023-03-07T20:21:50.252Z,5.66
2023-03-07T20:24:21.479Z,5.62
2023-03-07T20:26:50.726Z,5.04
2023-03-07T20:29:20.164Z,5.20
2023-03-07T20:31:50.653Z,5.35
2023-03-07T20:34:20.608Z,5.36
2023-03-07T20:36:49.802Z,5.36
2023-03-07T20:39:18.765Z,5.49
2023-03-07T20:41:47.913Z,5.45
2023-03-07T20:44:17.442Z,5.13
2023-03-07T20:46:46.092Z,5.17
2023-03-07T20:49:17.360Z,5.15
2023-03-07T20:51:48.004Z,5.16
2023-03-07T20:54:18.658Z,5.22
2023-03-07T20:56:49.363Z,5.20
2023-03-07T20:59:20.928Z,5.31
2023-03-07T21:01:50.205Z,5.40
2023-03-07T21:04:21.567Z,5.31
2023-03-07T21:06:50.420Z,5.44
2023-03-07T21:09:20.802Z,5.05
2023-03-07T21:11:50.630Z,5.33
2023-03-07T21:14:21.708Z,5.21
2023-03-07T21:16:50.388Z,5.22
2023-03-07T21:19:20.408Z,5.35
2023-03-07T21:21:49.660Z,5.27
2023-03-07T21:24:19.856Z,5.32
2023-03-07T21:26:49.400Z,5.06
2023-03-07T21:29:18.218Z,5.15
2023-03-07T21:31:47.756Z,5.09
2023-03-07T21:34:17.223Z,5.21
2023-03-07T21:36:46.380Z,4.90
2023-03-07T21:39:16.398Z,5.10
2023-03-07T21:41:45.614Z,4.91
2023-03-07T21:44:16.141Z,4.91
2023-03-07T21:46:45.848Z,4.86
2023-03-07T21:49:14.610Z,4.93
2023-03-07T21:51:45.023Z,4.79
2023-03-07T21:54:14.315Z,4.96
2023-03-07T21:56:44.390Z,5.07
2023-03-07T21:59:14.231Z,4.90
2023-03-07T22:01:43.954Z,5.16
2023-03-07T22:04:12.912Z,4.93
2023-03-07T22:06:42.113Z,5.17
2023-03-07T22:09:12.094Z,5.21
2023-03-07T22:11:41.410Z,4.84
2023-03-07T22:14:09.915Z,5.11
2023-03-07T22:16:40.141Z,4.76
2023-03-07T22:19:09.480Z,5.36
2023-03-07T22:21:38.378Z,4.91
2023-03-07T22:24:07.957Z,4.98
2023-03-07T22:26:37.328Z,5.25
2023-03-07T22:29:06.307Z,4.92
2023-03-07T22:31:36.298Z,5.23
2023-03-07T22:34:06.068Z,4.93
2023-03-07T22:36:35.905Z,4.90
2023-03-07T22:39:05.129Z,4.87
2023-03-07T22:41:35.285Z,4.75
2023-03-07T22:44:04.375Z,5.15
2023-03-07T22:46:34.355Z,4.88
2023-03-07T22:49:03.834Z,5.22
2023-03-07T22:51:32.418Z,5.24
2023-03-07T22:54:03.706Z,4.75
2023-03-07T22:56:33.267Z,4.61
2023-03-07T22:59:06.713Z,4.98
2023-03-07T23:01:40.348Z,4.58
2023-03-07T23:04:09.784Z,4.64
2023-03-07T23:06:39.960Z,4.70
2023-03-07T23:09:09.526Z,4.77
2023-03-07T23:11:38.356Z,4.68
2023-03-07T23:14:08.851Z,5.10
2023-03-07T23:16:40.035Z,5.14
2023-03-07T23:19:10.184Z,5.06
2023-03-07T23:21:39.979Z,4.90
2023-03-07T23:24:09.947Z,4.54
2023-03-07T23:26:40.304Z,4.65
2023-03-07T23:29:12.611Z,4.13
2023-03-07T23:31:45.596Z,4.41
2023-03-07T23:34:21.182Z,4.14
2023-03-07T23:36:52.695Z,4.20
2023-03-07T23:39:21.550Z,4.12
2023-03-07T23:41:50.883Z,4.55
2023-03-07T23:44:20.065Z,5.18
2023-03-07T23:46:49.709Z,4.50
2023-03-07T23:49:18.298Z,4.89
2023-03-07T23:51:47.871Z,4.76
2023-03-07T23:54:17.579Z,5.06
2023-03-07T23:56:46.478Z,5.10
2023-03-07T23:59:16.550Z,4.67
